Time;durP1;ratioP1;P1;durP2;ratioP2;P2;SDS_P1;SDS_P2;PMS_P1;PMS_P2;Temp;Humidity;BMP_temperature;BMP_pressure;BME280_temperature;BME280_humidity;BME280_pressure;Samples;Min_cycle;Max_cycle;Signal;HPM_P1;HPM_P2
2021/10/19 00:01:26;;;;;;;4.53;3.53;;;;;;;;;;5115098;27;20031;-44
2021/10/19 00:03:52;;;;;;;5.40;3.63;;;;;;;;;;5133498;27;20019;-44
2021/10/19 00:06:18;;;;;;;5.00;3.38;;;;;;;;;;5132186;27;20361;-44
2021/10/19 00:08:44;;;;;;;5.38;3.60;;;;;;;;;;5133294;27;20030;-44
2021/10/19 00:11:11;;;;;;;4.25;3.42;;;;;;;;;;5132363;27;20415;-44
2021/10/19 00:13:37;;;;;;;5.03;3.88;;;;;;;;;;5133229;27;20027;-44
2021/10/19 00:16:06;;;;;;;5.60;3.40;;;;;;;;;;5133143;27;20027;-44
2021/10/19 00:18:33;;;;;;;3.83;3.17;;;;;;;;;;5132852;27;20076;-44
2021/10/19 00:20:59;;;;;;;5.45;3.33;;;;;;;;;;5118048;27;20029;-44
2021/10/19 00:23:24;;;;;;;5.05;3.45;;;;;;;;;;5111649;28;20110;-45
2021/10/19 00:25:50;;;;;;;3.75;2.75;;;;;;;;;;5112154;28;20051;-44
2021/10/19 00:28:16;;;;;;;5.15;3.55;;;;;;;;;;5111949;28;20031;-44
2021/10/19 00:30:42;;;;;;;4.60;3.08;;;;;;;;;;5112413;28;20418;-47
2021/10/19 00:33:08;;;;;;;3.78;3.33;;;;;;;;;;5093618;28;20016;-46
2021/10/19 00:35:34;;;;;;;3.58;2.67;;;;;;;;;;5111910;28;20444;-47
2021/10/19 00:38:01;;;;;;;4.70;3.35;;;;;;;;;;5112645;28;20074;-45
2021/10/19 00:40:27;;;;;;;4.32;3.33;;;;;;;;;;5111367;28;20090;-44
2021/10/19 00:42:54;;;;;;;4.30;2.90;;;;;;;;;;5094157;28;20454;-47
2021/10/19 00:45:20;;;;;;;3.92;3.20;;;;;;;;;;5111755;28;20020;-46
2021/10/19 00:47:48;;;;;;;4.72;3.30;;;;;;;;;;5112218;28;20027;-44
2021/10/19 00:50:14;;;;;;;3.85;3.20;;;;;;;;;;5111368;28;20166;-44
2021/10/19 00:52:41;;;;;;;4.05;2.95;;;;;;;;;;5112364;28;20540;-46
2021/10/19 00:55:08;;;;;;;4.68;3.20;;;;;;;;;;5111682;28;20051;-46
2021/10/19 00:57:34;;;;;;;5.18;3.20;;;;;;;;;;5112467;28;20020;-50
2021/10/19 01:00:00;;;;;;;3.72;3.05;;;;;;;;;;5112087;28;20027;-46
2021/10/19 01:02:27;;;;;;;4.05;2.83;;;;;;;;;;5111113;28;20154;-45
2021/10/19 01:04:53;;;;;;;3.90;3.20;;;;;;;;;;5111975;28;20356;-45
2021/10/19 01:07:20;;;;;;;4.60;3.35;;;;;;;;;;5111248;28;20044;-45
2021/10/19 01:09:46;;;;;;;3.28;2.67;;;;;;;;;;5111879;28;20034;-44
2021/10/19 01:12:13;;;;;;;3.53;2.83;;;;;;;;;;5111153;28;20019;-45
2021/10/19 01:14:39;;;;;;;3.75;2.85;;;;;;;;;;5112201;28;20024;-44
2021/10/19 01:17:06;;;;;;;3.83;3.17;;;;;;;;;;5111950;28;20133;-47
2021/10/19 01:19:32;;;;;;;4.25;3.20;;;;;;;;;;5114196;28;20098;-44
2021/10/19 01:22:00;;;;;;;3.47;2.92;;;;;;;;;;5132405;28;20023;-44
2021/10/19 01:24:26;;;;;;;5.28;2.90;;;;;;;;;;5131554;28;20176;-45
2021/10/19 01:26:52;;;;;;;3.45;2.85;;;;;;;;;;5132496;28;20352;-45
2021/10/19 01:29:18;;;;;;;4.20;2.92;;;;;;;;;;5131555;28;20027;-45
2021/10/19 01:31:48;;;;;;;4.00;3.10;;;;;;;;;;5132355;28;20341;-45
2021/10/19 01:34:15;;;;;;;3.63;3.13;;;;;;;;;;5131565;28;20102;-44
2021/10/19 01:36:41;;;;;;;4.32;2.92;;;;;;;;;;5132157;27;20471;-44
2021/10/19 01:39:07;;;;;;;4.38;3.00;;;;;;;;;;5136095;27;20034;-47
2021/10/19 01:41:33;;;;;;;4.10;2.83;;;;;;;;;;5135460;27;20015;-45
2021/10/19 01:43:59;;;;;;;4.05;2.80;;;;;;;;;;5135668;27;20023;-45
2021/10/19 01:46:25;;;;;;;3.97;2.83;;;;;;;;;;5135472;27;20462;-46
2021/10/19 01:48:52;;;;;;;4.53;2.90;;;;;;;;;;5135898;27;20048;-45
2021/10/19 01:51:18;;;;;;;4.00;3.10;;;;;;;;;;5134937;27;20034;-47
2021/10/19 01:53:45;;;;;;;3.97;2.88;;;;;;;;;;5135639;27;20011;-45
2021/10/19 01:56:11;;;;;;;4.28;3.08;;;;;;;;;;5134663;27;20455;-46
2021/10/19 01:58:37;;;;;;;4.10;2.92;;;;;;;;;;5135437;27;20065;-44
2021/10/19 02:01:04;;;;;;;4.18;3.35;;;;;;;;;;5135478;27;20098;-44
2021/10/19 02:03:30;;;;;;;3.67;2.85;;;;;;;;;;5134617;27;20024;-44
2021/10/19 02:05:56;;;;;;;3.63;2.80;;;;;;;;;;5135766;27;20096;-44
2021/10/19 02:08:22;;;;;;;4.05;2.70;;;;;;;;;;5134435;27;20448;-44
2021/10/19 02:10:48;;;;;;;4.15;2.65;;;;;;;;;;5135218;27;20030;-44
2021/10/19 02:13:14;;;;;;;4.38;2.90;;;;;;;;;;5134639;27;20011;-44
2021/10/19 02:15:41;;;;;;;4.95;2.88;;;;;;;;;;5135282;27;20019;-45
2021/10/19 02:18:07;;;;;;;3.47;2.80;;;;;;;;;;5135102;27;20019;-45
2021/10/19 02:20:35;;;;;;;3.85;2.83;;;;;;;;;;5123773;27;20031;-44
2021/10/19 02:23:01;;;;;;;3.35;2.70;;;;;;;;;;5114567;28;20015;-44
2021/10/19 02:25:27;;;;;;;3.67;2.63;;;;;;;;;;5113459;28;20791;-44
2021/10/19 02:27:54;;;;;;;3.65;2.85;;;;;;;;;;5114725;28;20019;-44
2021/10/19 02:30:20;;;;;;;4.40;3.10;;;;;;;;;;5113838;28;20085;-44
2021/10/19 02:32:46;;;;;;;5.75;3.20;;;;;;;;;;5114539;28;20028;-44
2021/10/19 02:35:14;;;;;;;3.33;2.67;;;;;;;;;;5113578;28;20051;-44
2021/10/19 02:37:40;;;;;;;5.10;3.28;;;;;;;;;;5114409;28;20047;-45
2021/10/19 02:40:07;;;;;;;3.88;3.10;;;;;;;;;;5114347;28;20035;-44
2021/10/19 02:42:33;;;;;;;3.63;2.95;;;;;;;;;;5113977;28;20054;-44
2021/10/19 02:44:59;;;;;;;3.35;2.80;;;;;;;;;;5114093;28;20059;-45
2021/10/19 02:47:25;;;;;;;3.55;2.80;;;;;;;;;;5113377;28;20472;-44
2021/10/19 02:49:51;;;;;;;3.60;2.80;;;;;;;;;;5113225;28;20511;-47
2021/10/19 02:52:18;;;;;;;3.38;2.38;;;;;;;;;;5113001;28;20023;-47
2021/10/19 02:54:44;;;;;;;4.20;3.00;;;;;;;;;;5114142;28;20065;-44
2021/10/19 02:57:10;;;;;;;3.00;2.70;;;;;;;;;;5113360;28;20099;-47
2021/10/19 02:59:36;;;;;;;4.15;2.83;;;;;;;;;;5113703;28;20027;-45
2021/10/19 03:02:02;;;;;;;3.50;2.72;;;;;;;;;;5113894;28;20094;-48
2021/10/19 03:04:28;;;;;;;5.13;3.00;;;;;;;;;;5112778;28;20539;-46
2021/10/19 03:06:54;;;;;;;4.60;2.85;;;;;;;;;;5113816;28;20487;-44
2021/10/19 03:09:20;;;;;;;3.90;2.58;;;;;;;;;;5112609;28;20020;-44
2021/10/19 03:11:46;;;;;;;3.65;2.65;;;;;;;;;;5113601;28;20020;-45
2021/10/19 03:14:13;;;;;;;2.90;2.53;;;;;;;;;;5113058;28;20020;-47
2021/10/19 03:16:39;;;;;;;3.60;2.70;;;;;;;;;;5113788;28;20011;-46
2021/10/19 03:19:05;;;;;;;3.53;2.97;;;;;;;;;;5113650;28;20054;-44
2021/10/19 03:21:31;;;;;;;4.40;3.08;;;;;;;;;;5112817;28;20023;-45
2021/10/19 03:23:57;;;;;;;3.72;2.90;;;;;;;;;;5113114;28;20016;-45
2021/10/19 03:26:23;;;;;;;3.50;2.58;;;;;;;;;;5112782;28;20038;-44
2021/10/19 03:28:49;;;;;;;3.55;2.75;;;;;;;;;;5113422;28;20015;-45
2021/10/19 03:31:15;;;;;;;4.35;2.72;;;;;;;;;;5112532;28;20028;-44
2021/10/19 03:33:41;;;;;;;3.53;2.42;;;;;;;;;;5112999;28;20020;-45
2021/10/19 03:36:08;;;;;;;3.83;2.70;;;;;;;;;;5113419;28;20039;-44
2021/10/19 03:38:35;;;;;;;3.80;2.97;;;;;;;;;;5112371;28;20114;-44
2021/10/19 03:41:01;;;;;;;3.78;2.70;;;;;;;;;;5113018;28;20027;-44
2021/10/19 03:43:27;;;;;;;4.30;2.90;;;;;;;;;;5111873;28;20059;-45
2021/10/19 03:45:53;;;;;;;3.85;2.17;;;;;;;;;;5113236;28;20015;-45
2021/10/19 03:48:19;;;;;;;2.60;2.30;;;;;;;;;;5112153;28;20364;-45
2021/10/19 03:50:45;;;;;;;3.45;2.58;;;;;;;;;;5113044;28;20077;-44
2021/10/19 03:53:11;;;;;;;3.42;2.78;;;;;;;;;;5112777;28;20023;-47
2021/10/19 03:55:37;;;;;;;3.40;2.88;;;;;;;;;;5112860;28;20046;-44
2021/10/19 03:58:03;;;;;;;3.90;2.75;;;;;;;;;;5112531;28;20452;-45
2021/10/19 04:00:29;;;;;;;3.38;2.75;;;;;;;;;;5111474;28;20080;-44
2021/10/19 04:02:55;;;;;;;4.25;2.42;;;;;;;;;;5112978;28;20038;-44
2021/10/19 04:05:21;;;;;;;3.88;2.80;;;;;;;;;;5111570;28;20016;-45
2021/10/19 04:07:47;;;;;;;4.43;2.95;;;;;;;;;;5112851;28;20068;-44
2021/10/19 04:10:14;;;;;;;3.30;2.67;;;;;;;;;;5112074;28;20095;-45
2021/10/19 04:12:40;;;;;;;3.10;2.30;;;;;;;;;;5112394;28;20448;-47
2021/10/19 04:15:07;;;;;;;4.03;3.13;;;;;;;;;;5112483;28;20028;-45
2021/10/19 04:17:34;;;;;;;4.45;2.88;;;;;;;;;;5111628;28;20035;-45
2021/10/19 04:20:00;;;;;;;2.92;2.30;;;;;;;;;;5112582;28;20036;-44
2021/10/19 04:22:26;;;;;;;3.20;2.38;;;;;;;;;;5111738;28;20019;-44
2021/10/19 04:24:54;;;;;;;3.47;2.78;;;;;;;;;;5112615;28;20020;-44
2021/10/19 04:27:20;;;;;;;3.28;2.70;;;;;;;;;;5111803;28;20467;-45
2021/10/19 04:29:46;;;;;;;4.55;3.53;;;;;;;;;;5112329;28;20028;-46
2021/10/19 04:32:13;;;;;;;3.17;2.50;;;;;;;;;;5112280;28;20360;-45
2021/10/19 04:34:39;;;;;;;3.45;2.83;;;;;;;;;;5111364;28;20043;-46
2021/10/19 04:37:05;;;;;;;3.65;2.38;;;;;;;;;;5112398;28;20464;-47
2021/10/19 04:39:31;;;;;;;4.10;3.22;;;;;;;;;;5111621;28;20479;-45
2021/10/19 04:41:57;;;;;;;3.10;2.60;;;;;;;;;;5111963;28;20450;-45
2021/10/19 04:44:23;;;;;;;3.50;2.60;;;;;;;;;;5111322;28;20030;-46
2021/10/19 04:46:50;;;;;;;3.83;2.80;;;;;;;;;;5112315;28;20379;-47
2021/10/19 04:49:16;;;;;;;3.75;2.97;;;;;;;;;;5111693;28;20436;-46
2021/10/19 04:51:42;;;;;;;2.95;2.60;;;;;;;;;;5111866;28;20464;-46
2021/10/19 04:54:08;;;;;;;3.88;2.67;;;;;;;;;;5112274;28;20368;-46
2021/10/19 04:56:34;;;;;;;3.00;2.70;;;;;;;;;;5111494;28;20055;-45
2021/10/19 04:59:00;;;;;;;3.95;2.80;;;;;;;;;;5111999;28;20364;-44
2021/10/19 05:01:26;;;;;;;4.22;2.60;;;;;;;;;;5120636;28;20062;-45
2021/10/19 05:03:53;;;;;;;3.63;2.85;;;;;;;;;;5132620;28;20057;-45
2021/10/19 05:06:19;;;;;;;3.58;2.70;;;;;;;;;;5128626;28;20027;-47
2021/10/19 05:08:45;;;;;;;3.03;2.60;;;;;;;;;;5111637;28;20031;-45
2021/10/19 05:11:11;;;;;;;4.63;3.05;;;;;;;;;;5111905;28;20031;-45
2021/10/19 05:13:37;;;;;;;4.97;2.97;;;;;;;;;;5113908;28;20540;-46
2021/10/19 05:16:04;;;;;;;3.72;2.78;;;;;;;;;;5115756;28;20176;-46
2021/10/19 05:18:30;;;;;;;3.33;2.72;;;;;;;;;;5115216;28;20024;-48
2021/10/19 05:20:56;;;;;;;3.13;2.50;;;;;;;;;;5130234;27;20015;-45
2021/10/19 05:23:22;;;;;;;3.55;2.92;;;;;;;;;;5135873;27;20026;-45
2021/10/19 05:25:48;;;;;;;6.20;2.50;;;;;;;;;;5136271;27;20022;-45
2021/10/19 05:28:14;;;;;;;3.90;2.35;;;;;;;;;;5136700;27;20019;-46
2021/10/19 05:30:40;;;;;;;5.25;2.78;;;;;;;;;;5135297;27;20035;-44
2021/10/19 05:33:07;;;;;;;4.25;2.78;;;;;;;;;;5136375;27;20124;-46
2021/10/19 05:35:33;;;;;;;4.47;2.72;;;;;;;;;;5134887;27;20489;-45
2021/10/19 05:37:59;;;;;;;3.80;2.58;;;;;;;;;;5136189;27;20023;-47
2021/10/19 05:40:26;;;;;;;18.50;4.15;;;;;;;;;;5135104;27;20048;-45
2021/10/19 05:42:52;;;;;;;9.52;3.00;;;;;;;;;;5135379;27;20049;-44
2021/10/19 05:45:18;;;;;;;9.32;4.07;;;;;;;;;;5135272;27;20054;-45
2021/10/19 05:47:45;;;;;;;15.98;3.65;;;;;;;;;;5124382;27;20050;-44
2021/10/19 05:50:12;;;;;;;11.52;3.15;;;;;;;;;;5114626;28;20024;-44
2021/10/19 05:52:38;;;;;;;11.25;3.30;;;;;;;;;;5114108;28;20047;-45
2021/10/19 05:55:04;;;;;;;10.10;3.47;;;;;;;;;;5114745;28;20026;-46
2021/10/19 05:57:30;;;;;;;7.32;2.55;;;;;;;;;;5114199;28;20068;-46
2021/10/19 05:59:56;;;;;;;5.63;2.78;;;;;;;;;;5115126;28;20168;-45
2021/10/19 06:02:22;;;;;;;7.85;3.53;;;;;;;;;;5113682;28;20094;-45
2021/10/19 06:04:48;;;;;;;7.28;2.88;;;;;;;;;;5114685;28;20130;-47
2021/10/19 06:07:14;;;;;;;8.68;3.17;;;;;;;;;;5114923;28;20030;-48
2021/10/19 06:09:40;;;;;;;5.22;2.88;;;;;;;;;;5113568;28;20600;-46
2021/10/19 06:12:06;;;;;;;8.93;3.60;;;;;;;;;;5114925;28;20032;-45
2021/10/19 06:14:32;;;;;;;6.63;3.10;;;;;;;;;;5109171;27;20153;-47
2021/10/19 06:16:58;;;;;;;5.97;2.78;;;;;;;;;;5119527;27;20099;-45
2021/10/19 06:19:24;;;;;;;7.10;3.08;;;;;;;;;;5115237;28;20020;-45
2021/10/19 06:21:50;;;;;;;5.72;3.40;;;;;;;;;;5102489;27;20030;-49
2021/10/19 06:24:17;;;;;;;6.88;2.97;;;;;;;;;;5134870;27;20015;-45
2021/10/19 06:26:44;;;;;;;11.07;3.47;;;;;;;;;;5134322;27;20015;-47
2021/10/19 06:29:11;;;;;;;6.43;3.03;;;;;;;;;;5134399;27;20027;-47
2021/10/19 06:31:37;;;;;;;5.47;3.35;;;;;;;;;;5133813;27;20028;-45
2021/10/19 06:34:03;;;;;;;4.72;2.35;;;;;;;;;;5134637;27;20022;-46
2021/10/19 06:36:29;;;;;;;7.28;3.25;;;;;;;;;;5134089;27;20043;-45
2021/10/19 06:38:55;;;;;;;7.30;3.58;;;;;;;;;;5134829;27;20064;-45
2021/10/19 06:41:21;;;;;;;5.10;2.60;;;;;;;;;;5128013;27;20034;-46
2021/10/19 06:43:47;;;;;;;4.45;2.50;;;;;;;;;;5113755;28;20020;-45
2021/10/19 06:46:13;;;;;;;4.10;2.67;;;;;;;;;;5113979;28;20088;-47
2021/10/19 06:48:39;;;;;;;4.07;2.58;;;;;;;;;;5112996;28;20024;-45
2021/10/19 06:51:06;;;;;;;5.47;3.33;;;;;;;;;;5113743;28;20037;-45
2021/10/19 06:53:32;;;;;;;5.85;2.47;;;;;;;;;;5113117;28;20015;-45
2021/10/19 06:55:58;;;;;;;7.70;2.70;;;;;;;;;;5113859;28;20012;-45
2021/10/19 06:58:25;;;;;;;5.15;3.10;;;;;;;;;;5112762;28;20024;-45
2021/10/19 07:00:51;;;;;;;3.65;2.60;;;;;;;;;;5113839;28;20133;-45
2021/10/19 07:03:17;;;;;;;5.03;2.25;;;;;;;;;;5095261;28;20012;-45
2021/10/19 07:05:43;;;;;;;5.72;3.60;;;;;;;;;;5113079;28;20037;-45
2021/10/19 07:08:09;;;;;;;4.35;2.72;;;;;;;;;;5113405;28;20055;-44
2021/10/19 07:10:36;;;;;;;4.38;2.88;;;;;;;;;;5112684;28;20059;-45
2021/10/19 07:13:02;;;;;;;6.93;2.80;;;;;;;;;;5112581;28;20015;-47
2021/10/19 07:15:34;;;;;;;5.45;2.95;;;;;;;;;;5106219;27;20027;-45
2021/10/19 07:18:00;;;;;;;5.95;3.30;;;;;;;;;;5122273;27;20060;-50
2021/10/19 07:20:26;;;;;;;6.60;2.53;;;;;;;;;;5123450;27;20028;-46
2021/10/19 07:22:55;;;;;;;5.85;3.13;;;;;;;;;;5113639;28;20114;-45
2021/10/19 07:25:21;;;;;;;8.95;2.78;;;;;;;;;;5113148;28;20008;-46
2021/10/19 07:27:47;;;;;;;19.23;4.40;;;;;;;;;;5112313;28;20464;-45
2021/10/19 07:30:15;;;;;;;5.45;3.13;;;;;;;;;;5113323;28;20028;-45
2021/10/19 07:32:41;;;;;;;6.18;3.15;;;;;;;;;;5112452;28;20011;-44
2021/10/19 07:35:08;;;;;;;6.25;2.95;;;;;;;;;;5112161;28;20046;-44
2021/10/19 07:37:37;;;;;;;7.03;3.03;;;;;;;;;;5112244;28;20023;-45
2021/10/19 07:40:04;;;;;;;5.85;2.90;;;;;;;;;;5113333;28;20020;-47
2021/10/19 07:42:33;;;;;;;5.45;3.50;;;;;;;;;;5111886;28;20023;-44
2021/10/19 07:44:59;;;;;;;4.07;2.97;;;;;;;;;;5114413;27;20390;-46
2021/10/19 07:47:25;;;;;;;6.47;3.15;;;;;;;;;;5132609;27;20015;-46
2021/10/19 07:49:50;;;;;;;4.85;3.25;;;;;;;;;;5133764;27;20072;-45
2021/10/19 07:52:16;;;;;;;7.05;3.35;;;;;;;;;;5133687;27;20483;-45
2021/10/19 07:54:42;;;;;;;4.03;2.80;;;;;;;;;;5133005;27;20033;-45
2021/10/19 07:57:08;;;;;;;5.15;3.17;;;;;;;;;;5133706;27;20448;-45
2021/10/19 07:59:34;;;;;;;7.45;3.85;;;;;;;;;;5132655;27;20019;-48
2021/10/19 08:02:00;;;;;;;5.70;3.33;;;;;;;;;;5133170;27;20022;-45
2021/10/19 08:04:27;;;;;;;6.55;3.65;;;;;;;;;;5132279;27;20083;-45
2021/10/19 08:06:53;;;;;;;5.72;2.85;;;;;;;;;;5132943;27;20023;-45
2021/10/19 08:09:19;;;;;;;6.15;3.15;;;;;;;;;;5133105;27;20026;-44
2021/10/19 08:11:45;;;;;;;8.90;5.25;;;;;;;;;;5131640;27;20605;-49
2021/10/19 08:14:12;;;;;;;12.98;6.15;;;;;;;;;;5107308;27;20024;-46
2021/10/19 08:16:38;;;;;;;12.63;6.45;;;;;;;;;;5110946;28;20023;-48
2021/10/19 08:19:04;;;;;;;10.75;5.63;;;;;;;;;;5111931;28;20060;-46
2021/10/19 08:21:31;;;;;;;11.50;6.07;;;;;;;;;;5111138;28;20032;-48
2021/10/19 08:23:57;;;;;;;11.40;6.25;;;;;;;;;;5112354;28;20019;-47
2021/10/19 08:26:29;;;;;;;8.30;5.30;;;;;;;;;;5111692;28;20094;-47
2021/10/19 08:28:55;;;;;;;10.68;5.18;;;;;;;;;;5112330;28;20008;-47
2021/10/19 08:31:21;;;;;;;10.48;5.40;;;;;;;;;;5112295;28;20357;-45
2021/10/19 08:33:50;;;;;;;9.95;4.97;;;;;;;;;;5111485;28;20135;-45
2021/10/19 08:36:16;;;;;;;8.35;4.78;;;;;;;;;;5112482;28;20059;-45
2021/10/19 08:38:43;;;;;;;10.95;4.82;;;;;;;;;;5111653;28;20016;-48
2021/10/19 08:41:11;;;;;;;9.32;4.47;;;;;;;;;;5112087;28;20027;-45
2021/10/19 08:43:38;;;;;;;8.00;4.93;;;;;;;;;;5111174;28;20136;-45
2021/10/19 08:46:05;;;;;;;10.68;4.78;;;;;;;;;;5111985;28;20012;-47
2021/10/19 08:48:31;;;;;;;7.78;4.78;;;;;;;;;;5114613;28;20016;-44
2021/10/19 08:50:58;;;;;;;9.40;4.53;;;;;;;;;;5115928;28;20019;-44
2021/10/19 08:53:25;;;;;;;10.10;5.63;;;;;;;;;;5114973;28;20106;-47
2021/10/19 08:55:51;;;;;;;8.20;4.65;;;;;;;;;;5115403;28;20016;-44
2021/10/19 08:58:17;;;;;;;6.82;4.68;;;;;;;;;;5113647;27;20022;-45
2021/10/19 09:00:43;;;;;;;7.32;4.45;;;;;;;;;;5109280;27;20051;-45
2021/10/19 09:03:09;;;;;;;8.50;4.13;;;;;;;;;;5116684;28;20107;-45
2021/10/19 09:05:36;;;;;;;7.80;4.20;;;;;;;;;;5115249;28;20024;-45
2021/10/19 09:08:03;;;;;;;8.45;3.97;;;;;;;;;;5115717;28;20106;-44
2021/10/19 09:10:33;;;;;;;7.55;3.95;;;;;;;;;;5115144;28;20035;-46
2021/10/19 09:13:10;;;;;;;6.75;3.95;;;;;;;;;;5115865;28;20038;-45
2021/10/19 09:15:39;;;;;;;8.30;3.67;;;;;;;;;;5114806;28;20019;-45
2021/10/19 09:18:10;;;;;;;7.88;3.88;;;;;;;;;;5115936;28;20047;-45
2021/10/19 09:20:40;;;;;;;6.43;3.25;;;;;;;;;;5114996;28;20352;-45
2021/10/19 09:23:07;;;;;;;5.43;3.45;;;;;;;;;;5115563;27;20023;-44
2021/10/19 09:25:35;;;;;;;4.88;3.17;;;;;;;;;;5133923;27;20401;-45
2021/10/19 09:28:02;;;;;;;7.15;3.20;;;;;;;;;;5134755;27;20019;-45
2021/10/19 09:30:47;;;;;;;5.35;3.05;;;;;;;;;;5114860;28;20020;-48
2021/10/19 09:33:15;;;;;;;4.95;2.88;;;;;;;;;;5115823;28;20024;-44
2021/10/19 09:35:42;;;;;;;6.55;3.13;;;;;;;;;;5114788;28;20039;-45
2021/10/19 09:38:09;;;;;;;3.53;2.45;;;;;;;;;;5115648;28;20034;-45
2021/10/19 09:40:36;;;;;;;4.45;2.95;;;;;;;;;;5114790;28;20064;-45
2021/10/19 09:43:04;;;;;;;6.50;3.35;;;;;;;;;;5115436;28;20341;-45
2021/10/19 09:45:30;;;;;;;5.68;2.97;;;;;;;;;;5114916;28;20023;-45
2021/10/19 09:47:57;;;;;;;4.72;2.85;;;;;;;;;;5115255;28;20024;-46
2021/10/19 09:50:24;;;;;;;3.55;2.25;;;;;;;;;;5115218;28;20067;-45
2021/10/19 09:52:51;;;;;;;3.95;2.53;;;;;;;;;;5114321;28;20100;-49
2021/10/19 09:55:17;;;;;;;7.28;3.13;;;;;;;;;;5115244;28;20016;-45
2021/10/19 09:57:44;;;;;;;5.30;2.33;;;;;;;;;;5113872;28;20019;-47
2021/10/19 10:00:10;;;;;;;3.03;2.40;;;;;;;;;;5113070;28;20099;-47
2021/10/19 10:02:37;;;;;;;3.20;2.47;;;;;;;;;;5114364;28;20027;-45
2021/10/19 10:05:03;;;;;;;3.25;2.13;;;;;;;;;;5115016;28;20529;-46
2021/10/19 10:07:31;;;;;;;6.72;2.92;;;;;;;;;;5114078;28;20031;-47
2021/10/19 10:09:58;;;;;;;4.25;2.53;;;;;;;;;;5114954;28;20077;-46
2021/10/19 10:12:28;;;;;;;4.97;2.67;;;;;;;;;;5114939;28;20038;-46
2021/10/19 10:14:54;;;;;;;3.13;2.03;;;;;;;;;;5114382;28;20019;-46
2021/10/19 10:17:20;;;;;;;4.13;2.00;;;;;;;;;;5117139;27;20330;-45
2021/10/19 10:19:46;;;;;;;5.47;2.10;;;;;;;;;;5118384;27;20930;-48
2021/10/19 10:22:25;;;;;;;2.78;2.10;;;;;;;;;;5134893;27;20098;-44
2021/10/19 10:24:51;;;;;;;3.33;2.00;;;;;;;;;;5134481;27;20110;-46
2021/10/19 10:27:24;;;;;;;3.22;2.10;;;;;;;;;;5134988;27;20023;-45
2021/10/19 10:29:50;;;;;;;2.40;1.90;;;;;;;;;;5121403;27;20802;-45
2021/10/19 10:32:37;;;;;;;4.10;1.95;;;;;;;;;;5114414;28;20535;-45
2021/10/19 10:35:10;;;;;;;3.35;2.47;;;;;;;;;;5110014;28;20074;-46
2021/10/19 10:37:42;;;;;;;3.42;2.20;;;;;;;;;;5113527;28;20031;-45
2021/10/19 10:40:09;;;;;;;2.75;2.25;;;;;;;;;;5114559;28;20020;-46
2021/10/19 10:42:36;;;;;;;3.25;2.22;;;;;;;;;;5113558;28;20047;-45
2021/10/19 10:45:03;;;;;;;2.35;1.73;;;;;;;;;;5114407;28;20020;-44
2021/10/19 10:47:29;;;;;;;3.17;1.75;;;;;;;;;;5113617;28;20404;-45
2021/10/19 10:49:57;;;;;;;3.13;1.83;;;;;;;;;;5126359;27;20061;-44
2021/10/19 10:52:23;;;;;;;3.65;2.05;;;;;;;;;;5134657;27;20015;-44
2021/10/19 10:54:55;;;;;;;2.50;1.70;;;;;;;;;;5133837;27;20042;-44
2021/10/19 10:57:22;;;;;;;4.28;1.95;;;;;;;;;;5134579;27;20015;-44
2021/10/19 10:59:52;;;;;;;2.92;1.80;;;;;;;;;;5120813;27;20520;-45
2021/10/19 11:02:18;;;;;;;2.03;1.77;;;;;;;;;;5114159;28;20027;-44
2021/10/19 11:04:51;;;;;;;2.15;1.80;;;;;;;;;;5113163;28;20027;-44
2021/10/19 11:07:30;;;;;;;3.22;2.13;;;;;;;;;;5113806;28;20106;-45
2021/10/19 11:09:56;;;;;;;2.55;1.70;;;;;;;;;;5112485;28;20111;-44
2021/10/19 11:12:22;;;;;;;2.95;1.70;;;;;;;;;;5113936;28;20027;-44
2021/10/19 11:14:48;;;;;;;2.20;1.70;;;;;;;;;;5112889;28;20019;-44
2021/10/19 11:17:18;;;;;;;2.13;1.80;;;;;;;;;;5113634;28;20047;-45
2021/10/19 11:19:45;;;;;;;3.00;2.05;;;;;;;;;;5117013;27;20033;-45
2021/10/19 11:22:12;;;;;;;2.25;2.03;;;;;;;;;;5133996;27;20026;-45
2021/10/19 11:24:38;;;;;;;2.08;1.58;;;;;;;;;;5133180;27;20023;-45
2021/10/19 11:27:05;;;;;;;2.55;1.95;;;;;;;;;;5134256;27;20394;-45
2021/10/19 11:29:33;;;;;;;3.17;2.38;;;;;;;;;;5122905;27;20113;-47
2021/10/19 11:32:00;;;;;;;2.80;1.90;;;;;;;;;;5113403;28;20112;-45
2021/10/19 11:34:26;;;;;;;2.97;1.88;;;;;;;;;;5112732;28;20382;-45
2021/10/19 11:36:53;;;;;;;2.17;1.77;;;;;;;;;;5112279;28;20571;-48
2021/10/19 11:39:19;;;;;;;2.58;1.70;;;;;;;;;;5112787;28;20027;-46
2021/10/19 11:41:49;;;;;;;1.70;1.40;;;;;;;;;;5112617;28;20065;-44
2021/10/19 11:44:15;;;;;;;2.28;1.55;;;;;;;;;;5113007;28;20020;-45
2021/10/19 11:46:42;;;;;;;2.72;1.80;;;;;;;;;;5112441;28;20015;-45
2021/10/19 11:49:12;;;;;;;3.15;1.50;;;;;;;;;;5112917;28;20027;-45
2021/10/19 11:51:39;;;;;;;3.38;1.80;;;;;;;;;;5112204;28;20024;-44
2021/10/19 11:54:08;;;;;;;2.17;1.70;;;;;;;;;;5113002;28;20463;-46
2021/10/19 11:56:34;;;;;;;2.80;1.88;;;;;;;;;;5112250;28;20321;-47
2021/10/19 11:59:02;;;;;;;1.70;1.58;;;;;;;;;;5112762;28;20015;-46
2021/10/19 12:01:29;;;;;;;2.95;1.70;;;;;;;;;;5112857;28;20031;-45
2021/10/19 12:03:59;;;;;;;2.53;1.42;;;;;;;;;;5111995;28;20041;-45
2021/10/19 12:06:26;;;;;;;2.67;2.03;;;;;;;;;;5112981;28;20069;-48
2021/10/19 12:08:52;;;;;;;3.40;2.00;;;;;;;;;;5112079;28;20027;-45
2021/10/19 12:11:21;;;;;;;1.67;1.30;;;;;;;;;;5113353;28;20023;-44
2021/10/19 12:13:57;;;;;;;2.95;1.77;;;;;;;;;;5112289;28;20089;-46
2021/10/19 12:16:30;;;;;;;2.28;1.48;;;;;;;;;;5112748;28;20019;-45
2021/10/19 12:18:57;;;;;;;1.90;1.67;;;;;;;;;;5112140;28;20027;-45
2021/10/19 12:21:24;;;;;;;1.70;1.30;;;;;;;;;;5112205;28;20015;-46
2021/10/19 12:23:55;;;;;;;2.10;1.42;;;;;;;;;;5111652;28;20091;-48
2021/10/19 12:26:22;;;;;;;3.15;1.63;;;;;;;;;;5112573;28;20047;-49
2021/10/19 12:28:51;;;;;;;1.95;1.58;;;;;;;;;;5111366;28;20019;-45
2021/10/19 12:31:19;;;;;;;2.30;1.50;;;;;;;;;;5112336;28;20076;-45
2021/10/19 12:33:52;;;;;;;1.73;1.25;;;;;;;;;;5111787;28;20051;-48
2021/10/19 12:36:18;;;;;;;2.30;1.33;;;;;;;;;;5112154;28;20436;-45
2021/10/19 12:38:45;;;;;;;2.30;1.73;;;;;;;;;;5111310;28;20022;-47
2021/10/19 12:41:14;;;;;;;1.55;1.33;;;;;;;;;;5112276;28;20020;-44
2021/10/19 12:43:40;;;;;;;2.03;1.58;;;;;;;;;;5111687;28;20030;-45
2021/10/19 12:46:07;;;;;;;2.85;1.70;;;;;;;;;;5112015;28;20023;-45
2021/10/19 12:48:36;;;;;;;2.88;1.50;;;;;;;;;;5111876;28;20027;-48
2021/10/19 12:51:03;;;;;;;4.28;1.50;;;;;;;;;;5112175;28;20032;-45
2021/10/19 12:53:29;;;;;;;3.47;1.42;;;;;;;;;;5112269;28;20016;-44
2021/10/19 12:55:55;;;;;;;1.90;1.48;;;;;;;;;;5111320;28;20030;-44
2021/10/19 12:58:22;;;;;;;2.13;1.40;;;;;;;;;;5112275;28;20055;-45
2021/10/19 13:00:48;;;;;;;1.85;1.30;;;;;;;;;;5111324;28;20485;-44
2021/10/19 13:03:14;;;;;;;2.80;1.63;;;;;;;;;;5112181;28;20473;-44
2021/10/19 13:05:40;;;;;;;1.98;1.40;;;;;;;;;;5111459;28;20016;-44
2021/10/19 13:08:06;;;;;;;2.45;1.65;;;;;;;;;;5112221;28;20036;-45
2021/10/19 13:10:32;;;;;;;1.83;1.48;;;;;;;;;;5111542;28;20028;-46
2021/10/19 13:12:58;;;;;;;2.03;1.40;;;;;;;;;;5111839;28;20016;-48
2021/10/19 13:15:24;;;;;;;2.80;1.60;;;;;;;;;;5112301;28;20038;-44
2021/10/19 13:17:50;;;;;;;2.35;1.30;;;;;;;;;;5093075;28;20026;-45
2021/10/19 13:20:16;;;;;;;2.88;1.20;;;;;;;;;;5111655;28;20028;-44
2021/10/19 13:22:43;;;;;;;2.78;1.95;;;;;;;;;;5111280;28;20062;-44
2021/10/19 13:25:10;;;;;;;1.85;1.48;;;;;;;;;;5111461;28;20016;-45
2021/10/19 13:27:36;;;;;;;2.22;1.50;;;;;;;;;;5111357;28;20019;-46
2021/10/19 13:30:03;;;;;;;2.25;1.63;;;;;;;;;;5111698;28;20073;-44
2021/10/19 13:32:29;;;;;;;2.85;1.98;;;;;;;;;;5112121;28;20088;-45
2021/10/19 13:34:55;;;;;;;2.30;1.50;;;;;;;;;;5123090;27;20039;-45
2021/10/19 13:37:22;;;;;;;2.33;1.30;;;;;;;;;;5135954;27;20019;-46
2021/10/19 13:39:48;;;;;;;2.28;1.70;;;;;;;;;;5122311;27;20524;-45
2021/10/19 13:42:14;;;;;;;1.70;1.40;;;;;;;;;;5115761;28;20141;-47
2021/10/19 13:44:40;;;;;;;2.55;1.30;;;;;;;;;;5096660;28;20015;-45
2021/10/19 13:47:06;;;;;;;2.15;1.55;;;;;;;;;;5115359;28;20023;-45
2021/10/19 13:49:32;;;;;;;2.70;1.88;;;;;;;;;;5115272;28;20016;-47
2021/10/19 13:51:58;;;;;;;3.92;1.75;;;;;;;;;;5127407;27;20100;-49
2021/10/19 13:54:26;;;;;;;2.58;1.83;;;;;;;;;;5135689;27;20047;-45
2021/10/19 13:56:52;;;;;;;1.80;1.48;;;;;;;;;;5134812;27;20062;-45
2021/10/19 13:59:18;;;;;;;2.72;1.48;;;;;;;;;;5126649;27;20020;-47
2021/10/19 14:01:44;;;;;;;2.08;1.25;;;;;;;;;;5114067;28;20019;-46
2021/10/19 14:04:10;;;;;;;1.42;1.15;;;;;;;;;;5115178;28;20441;-45
2021/10/19 14:06:36;;;;;;;2.20;1.48;;;;;;;;;;5114344;28;20491;-46
2021/10/19 14:09:03;;;;;;;2.35;1.40;;;;;;;;;;5114779;28;20089;-46
2021/10/19 14:11:30;;;;;;;2.22;1.58;;;;;;;;;;5114446;28;20027;-45
2021/10/19 14:13:56;;;;;;;3.60;1.50;;;;;;;;;;5114355;28;20026;-44
2021/10/19 14:16:23;;;;;;;5.05;1.38;;;;;;;;;;5114855;28;20012;-43
2021/10/19 14:18:49;;;;;;;2.08;1.55;;;;;;;;;;5114412;28;20016;-46
2021/10/19 14:21:16;;;;;;;2.72;1.50;;;;;;;;;;5131530;27;20475;-44
2021/10/19 14:23:42;;;;;;;3.30;1.50;;;;;;;;;;5134473;27;20127;-44
2021/10/19 14:26:09;;;;;;;3.03;1.30;;;;;;;;;;5135601;27;20030;-43
2021/10/19 14:28:35;;;;;;;6.22;2.10;;;;;;;;;;5121097;27;20390;-49
2021/10/19 14:31:01;;;;;;;3.40;1.45;;;;;;;;;;5113527;28;20443;-47
2021/10/19 14:33:27;;;;;;;7.72;1.58;;;;;;;;;;5114153;28;20020;-42
2021/10/19 14:35:54;;;;;;;5.97;1.63;;;;;;;;;;5113192;28;20040;-45
2021/10/19 14:38:20;;;;;;;2.28;1.63;;;;;;;;;;5122204;27;20460;-44
2021/10/19 14:40:47;;;;;;;4.40;1.83;;;;;;;;;;5125479;27;20031;-46